createdAt,value
2022-10-19T00:01:57.535Z,73.76
2022-10-19T00:04:20.268Z,73.81
2022-10-19T00:06:44.176Z,74.58
2022-10-19T00:09:10.949Z,74.76
2022-10-19T00:11:35.463Z,74.64
2022-10-19T00:13:59.273Z,74.79
2022-10-19T00:16:22.788Z,75.24
2022-10-19T00:18:46.099Z,75.49
2022-10-19T00:21:10.562Z,75.19
2022-10-19T00:23:33.449Z,74.97
2022-10-19T00:25:57.001Z,74.96
2022-10-19T00:28:20.271Z,74.35
2022-10-19T00:30:42.887Z,74.92
2022-10-19T00:33:05.436Z,75.27
2022-10-19T00:35:28.093Z,74.79
2022-10-19T00:37:51.881Z,74.68
2022-10-19T00:40:15.219Z,74.48
2022-10-19T00:42:37.905Z,74.63
2022-10-19T00:45:04.893Z,74.99
2022-10-19T00:47:27.948Z,75.15
2022-10-19T00:49:50.989Z,74.86
2022-10-19T00:52:16.373Z,75.29
2022-10-19T00:54:42.144Z,76.95
2022-10-19T00:57:05.994Z,76.76
2022-10-19T00:59:31.878Z,76.54
2022-10-19T01:01:55.092Z,76.16
2022-10-19T01:04:21.327Z,75.67
2022-10-19T01:06:44.124Z,75.56
2022-10-19T01:09:07.279Z,75.44
2022-10-19T01:11:55.670Z,75.51
2022-10-19T01:14:50.535Z,75.28
2022-10-19T01:17:18.732Z,74.75
2022-10-19T01:20:02.872Z,74.28
2022-10-19T01:22:49.947Z,74.22
2022-10-19T01:25:43.119Z,74.08
2022-10-19T01:28:29.069Z,73.79
2022-10-19T01:31:26.819Z,73.61
2022-10-19T01:34:06.036Z,74.16
2022-10-19T01:36:57.429Z,74.31
2022-10-19T01:40:04.248Z,74.00
2022-10-19T01:42:40.727Z,73.78
2022-10-19T01:45:15.487Z,73.40
2022-10-19T01:48:02.214Z,73.57
2022-10-19T01:50:35.231Z,73.72
2022-10-19T01:52:59.799Z,73.38
2022-10-19T01:55:24.182Z,74.17
2022-10-19T01:57:51.166Z,74.25
2022-10-19T02:00:15.947Z,74.26
2022-10-19T02:02:43.785Z,74.27
2022-10-19T02:05:08.458Z,73.86
2022-10-19T02:07:31.981Z,74.29
2022-10-19T02:09:55.910Z,74.06
2022-10-19T02:12:20.168Z,74.10
2022-10-19T02:14:52.011Z,74.33
2022-10-19T02:17:19.576Z,73.64
2022-10-19T02:19:42.732Z,73.57
2022-10-19T02:22:06.083Z,72.71
2022-10-19T02:24:28.584Z,73.28
2022-10-19T02:26:52.075Z,73.10
2022-10-19T02:29:16.077Z,72.71
2022-10-19T02:31:38.851Z,72.78
2022-10-19T02:34:02.006Z,72.70
2022-10-19T02:36:25.277Z,72.50
2022-10-19T02:38:48.070Z,72.66
2022-10-19T02:41:36.690Z,73.44
2022-10-19T02:44:16.900Z,73.52
2022-10-19T02:46:46.304Z,73.74
2022-10-19T02:49:10.822Z,74.31
2022-10-19T02:51:39.309Z,74.95
2022-10-19T02:54:05.217Z,74.81
2022-10-19T02:56:28.443Z,75.14
2022-10-19T02:58:51.040Z,75.27
2022-10-19T03:01:14.755Z,76.62
2022-10-19T03:03:37.757Z,76.87
2022-10-19T03:06:00.626Z,76.69
2022-10-19T03:08:23.248Z,76.15
2022-10-19T03:10:46.002Z,75.75
2022-10-19T03:13:08.715Z,75.87
2022-10-19T03:15:31.413Z,75.90
2022-10-19T03:17:54.681Z,75.96
2022-10-19T03:20:17.557Z,75.68
2022-10-19T03:22:40.088Z,75.65
2022-10-19T03:25:03.342Z,75.77
2022-10-19T03:27:26.284Z,75.74
2022-10-19T03:29:50.532Z,75.90
2022-10-19T03:32:13.103Z,76.07
2022-10-19T03:34:36.055Z,76.16
2022-10-19T03:36:59.361Z,76.25
2022-10-19T03:39:22.455Z,76.37
2022-10-19T03:41:45.240Z,76.53
2022-10-19T03:44:09.229Z,76.65
2022-10-19T03:46:31.986Z,76.89
2022-10-19T03:48:55.151Z,76.67
2022-10-19T03:51:23.778Z,76.99
2022-10-19T03:53:46.929Z,77.20
2022-10-19T03:56:18.282Z,77.00
2022-10-19T03:58:42.271Z,77.16
2022-10-19T04:01:11.685Z,77.34
2022-10-19T04:06:05.299Z,77.19
2022-10-19T04:08:28.106Z,77.43
2022-10-19T04:10:50.664Z,77.40
2022-10-19T04:13:13.681Z,77.49
2022-10-19T04:15:36.603Z,77.36
2022-10-19T04:17:59.187Z,77.81
2022-10-19T04:20:22.604Z,77.98
2022-10-19T04:22:45.267Z,78.07
2022-10-19T04:25:10.303Z,78.31
2022-10-19T04:27:33.220Z,78.07
2022-10-19T04:29:55.973Z,78.02
2022-10-19T04:32:18.587Z,77.81
2022-10-19T04:34:41.018Z,77.32
2022-10-19T04:37:03.712Z,77.00
2022-10-19T04:39:26.623Z,77.45
2022-10-19T04:41:49.268Z,77.52
2022-10-19T04:44:11.850Z,77.90
2022-10-19T04:46:35.093Z,78.01
2022-10-19T04:48:59.149Z,78.36
2022-10-19T04:51:22.837Z,78.76
2022-10-19T04:53:46.079Z,78.70
2022-10-19T04:56:21.620Z,78.75
2022-10-19T04:58:44.738Z,78.83
2022-10-19T05:01:17.935Z,78.49
2022-10-19T05:03:41.137Z,78.34
2022-10-19T05:06:04.833Z,78.35
2022-10-19T05:08:27.325Z,78.63
2022-10-19T05:10:49.884Z,78.41
2022-10-19T05:13:12.572Z,78.70
2022-10-19T05:15:35.219Z,78.87
2022-10-19T05:17:58.012Z,79.10
2022-10-19T05:20:21.340Z,79.19
2022-10-19T05:22:44.213Z,79.21
2022-10-19T05:25:07.846Z,79.01
2022-10-19T05:27:30.784Z,78.92
2022-10-19T05:29:55.930Z,78.59
2022-10-19T05:32:18.557Z,78.25
2022-10-19T05:34:41.978Z,78.14
2022-10-19T05:37:04.566Z,78.26
2022-10-19T05:39:27.381Z,78.22
2022-10-19T05:41:50.601Z,77.94
2022-10-19T05:44:24.130Z,78.09
2022-10-19T05:46:47.571Z,78.34
2022-10-19T05:49:11.878Z,78.55
2022-10-19T05:51:34.608Z,79.00
2022-10-19T05:53:57.460Z,78.79
2022-10-19T05:56:22.511Z,78.74
2022-10-19T05:58:45.538Z,79.33
2022-10-19T06:01:09.572Z,79.80
2022-10-19T06:03:32.377Z,79.85
2022-10-19T06:05:55.821Z,80.12
2022-10-19T06:08:19.809Z,80.23
2022-10-19T06:10:43.377Z,80.14
2022-10-19T06:13:05.980Z,80.17
2022-10-19T06:15:28.794Z,80.05
2022-10-19T06:17:51.392Z,79.97
2022-10-19T06:20:16.454Z,79.60
2022-10-19T06:22:39.347Z,79.69
2022-10-19T06:25:02.153Z,79.87
2022-10-19T06:27:24.821Z,80.03
2022-10-19T06:29:47.727Z,79.78
2022-10-19T06:32:10.385Z,79.67
2022-10-19T06:34:33.177Z,79.45
2022-10-19T06:36:56.139Z,79.66
2022-10-19T06:39:19.037Z,79.67
2022-10-19T06:41:41.868Z,79.10
2022-10-19T06:44:30.463Z,78.33
2022-10-19T06:46:53.256Z,78.11
2022-10-19T06:49:16.147Z,77.94
2022-10-19T06:51:40.646Z,77.58
2022-10-19T06:54:03.230Z,77.78
2022-10-19T06:56:26.867Z,78.01
2022-10-19T06:58:50.036Z,77.76
2022-10-19T07:01:14.159Z,77.81
2022-10-19T07:03:37.305Z,78.00
2022-10-19T07:06:02.760Z,77.92
2022-10-19T07:08:27.834Z,77.81
2022-10-19T07:10:54.664Z,77.60
2022-10-19T07:13:17.369Z,77.58
2022-10-19T07:15:40.132Z,76.54
2022-10-19T07:18:02.860Z,74.70
2022-10-19T07:20:25.873Z,71.94
2022-10-19T07:22:48.535Z,70.50
2022-10-19T07:25:11.103Z,68.94
2022-10-19T07:27:37.866Z,67.27
2022-10-19T07:30:03.494Z,66.94
2022-10-19T07:32:26.126Z,66.83
2022-10-19T07:34:49.303Z,64.42
2022-10-19T07:37:11.970Z,63.29
2022-10-19T07:39:34.654Z,62.79
2022-10-19T07:41:57.814Z,64.01
2022-10-19T07:44:20.655Z,65.81
2022-10-19T07:46:43.511Z,68.63
2022-10-19T07:49:12.089Z,69.88
2022-10-19T07:51:34.824Z,70.48
2022-10-19T07:53:59.593Z,71.49
2022-10-19T07:56:24.541Z,71.77
2022-10-19T07:58:49.080Z,72.23
2022-10-19T08:01:17.247Z,72.35
2022-10-19T08:04:37.619Z,71.93
2022-10-19T08:06:24.489Z,71.83
2022-10-19T08:08:48.993Z,72.02
2022-10-19T08:11:23.876Z,71.62
2022-10-19T08:13:47.108Z,71.50
2022-10-19T08:16:40.447Z,71.55
2022-10-19T08:19:11.397Z,71.45
2022-10-19T08:21:34.824Z,71.38
2022-10-19T08:23:57.771Z,70.72
2022-10-19T08:26:21.538Z,70.53
2022-10-19T08:28:44.365Z,70.23
2022-10-19T08:31:15.673Z,69.83
2022-10-19T08:33:38.522Z,69.80
2022-10-19T08:36:05.033Z,69.23
2022-10-19T08:38:28.151Z,69.22
2022-10-19T08:40:51.016Z,69.32
2022-10-19T08:43:26.055Z,69.40
2022-10-19T08:46:30.214Z,70.01
2022-10-19T08:48:53.217Z,70.62
2022-10-19T08:51:15.941Z,70.51
2022-10-19T08:53:50.172Z,68.98
2022-10-19T08:56:51.682Z,68.91
2022-10-19T08:59:55.492Z,68.89
2022-10-19T09:02:21.682Z,68.30
2022-10-19T09:04:55.203Z,68.33
2022-10-19T09:07:23.701Z,67.13
2022-10-19T09:09:53.503Z,66.75
2022-10-19T09:12:20.619Z,66.63
2022-10-19T09:14:56.262Z,65.93
2022-10-19T09:17:18.972Z,66.40
2022-10-19T09:19:42.150Z,65.89
2022-10-19T09:22:15.072Z,65.71
2022-10-19T09:24:48.975Z,65.10
2022-10-19T09:27:25.668Z,64.32
2022-10-19T09:29:55.408Z,63.81
2022-10-19T09:32:25.770Z,63.26
2022-10-19T09:34:56.821Z,62.80
2022-10-19T09:37:26.057Z,61.48
2022-10-19T09:39:56.201Z,60.59
2022-10-19T09:42:30.602Z,60.74
2022-10-19T09:44:55.435Z,60.01
2022-10-19T09:47:23.674Z,60.24
2022-10-19T09:49:49.028Z,59.18
2022-10-19T09:52:32.873Z,58.76
2022-10-19T09:55:04.708Z,59.10
2022-10-19T09:57:27.400Z,59.11
2022-10-19T09:59:55.380Z,57.16
2022-10-19T10:02:31.286Z,56.93
2022-10-19T10:05:05.826Z,55.41
2022-10-19T10:07:35.637Z,56.28
2022-10-19T10:10:00.911Z,55.94
2022-10-19T10:12:24.067Z,56.32
2022-10-19T10:14:49.289Z,55.88
2022-10-19T10:17:19.388Z,54.73
2022-10-19T10:20:18.872Z,53.42
2022-10-19T10:22:52.664Z,53.09
2022-10-19T10:25:19.052Z,54.07
2022-10-19T10:27:42.160Z,55.33
2022-10-19T10:30:09.362Z,54.22
2022-10-19T10:32:32.353Z,55.61
2022-10-19T10:35:02.758Z,54.65
2022-10-19T10:37:34.694Z,54.64
2022-10-19T10:40:01.935Z,54.87
2022-10-19T10:42:55.196Z,55.01
2022-10-19T10:45:37.415Z,55.38
2022-10-19T10:48:22.633Z,55.74
2022-10-19T10:50:45.634Z,55.74
2022-10-19T10:53:31.985Z,53.53
2022-10-19T10:55:57.914Z,52.66
2022-10-19T10:59:01.869Z,51.61
2022-10-19T11:01:31.121Z,53.54
2022-10-19T11:04:04.432Z,53.59
2022-10-19T11:06:27.806Z,51.26
2022-10-19T11:09:20.100Z,50.19
2022-10-19T11:11:46.532Z,50.13
2022-10-19T11:14:38.854Z,46.96
2022-10-19T11:17:07.663Z,47.68
2022-10-19T11:19:42.169Z,47.02
2022-10-19T11:22:29.171Z,47.05
2022-10-19T11:25:06.714Z,46.73
2022-10-19T11:28:15.510Z,46.74
2022-10-19T11:31:08.990Z,49.42
2022-10-19T11:33:56.371Z,50.67
2022-10-19T11:36:59.355Z,51.15
2022-10-19T11:39:50.180Z,51.36
2022-10-19T11:42:45.024Z,51.71
2022-10-19T11:45:24.442Z,51.12
2022-10-19T11:48:25.223Z,51.55
2022-10-19T11:50:58.985Z,50.97
2022-10-19T11:53:59.487Z,51.41
2022-10-19T11:56:44.841Z,50.64
2022-10-19T11:59:39.957Z,50.17
2022-10-19T12:02:13.465Z,49.69
2022-10-19T12:04:42.104Z,49.05
2022-10-19T12:07:16.485Z,49.19
2022-10-19T12:10:25.660Z,48.95
2022-10-19T12:12:52.671Z,48.96
2022-10-19T12:15:39.707Z,48.26
2022-10-19T12:18:11.034Z,49.11
2022-10-19T12:20:47.086Z,50.41
2022-10-19T12:23:31.647Z,51.01
2022-10-19T12:25:57.426Z,50.53
2022-10-19T12:28:28.307Z,48.38
2022-10-19T12:30:55.646Z,49.54
2022-10-19T12:33:46.552Z,51.00
2022-10-19T12:36:31.085Z,51.13
2022-10-19T12:39:01.577Z,50.09
2022-10-19T12:41:52.566Z,52.02
2022-10-19T12:44:56.252Z,52.30
2022-10-19T12:47:23.216Z,52.02
2022-10-19T12:49:48.969Z,51.26
2022-10-19T12:52:14.227Z,52.03
2022-10-19T12:54:39.351Z,51.93
2022-10-19T12:57:04.323Z,50.52
2022-10-19T12:59:32.723Z,50.14
2022-10-19T13:01:57.129Z,49.84
2022-10-19T13:04:23.227Z,48.72
2022-10-19T13:06:58.035Z,46.87
2022-10-19T13:09:41.902Z,48.64
2022-10-19T13:12:21.349Z,47.91
2022-10-19T13:14:47.845Z,47.77
2022-10-19T13:17:34.017Z,48.18
2022-10-19T13:20:14.521Z,48.62
2022-10-19T13:22:37.628Z,48.36
2022-10-19T13:25:23.841Z,49.43
2022-10-19T13:27:48.049Z,48.58
2022-10-19T13:30:38.309Z,48.96
2022-10-19T13:33:19.609Z,48.65
2022-10-19T13:35:42.224Z,48.14
2022-10-19T13:38:16.818Z,49.55
2022-10-19T13:40:49.625Z,48.46
2022-10-19T13:43:24.554Z,48.34
2022-10-19T13:46:18.729Z,47.85
2022-10-19T13:49:18.599Z,48.44
2022-10-19T13:52:05.746Z,48.65
2022-10-19T13:54:59.149Z,48.72
2022-10-19T13:57:32.212Z,47.86
2022-10-19T14:00:12.976Z,48.61
2022-10-19T14:02:54.794Z,49.47
2022-10-19T14:05:47.693Z,50.21
2022-10-19T14:08:40.799Z,50.28
2022-10-19T14:11:17.330Z,49.89
2022-10-19T14:13:39.950Z,51.17
2022-10-19T14:16:03.149Z,50.63
2022-10-19T14:18:36.342Z,51.51
2022-10-19T14:21:01.471Z,51.39
2022-10-19T14:23:28.440Z,51.02
2022-10-19T14:25:53.357Z,50.53
2022-10-19T14:28:17.281Z,50.46
2022-10-19T14:30:44.197Z,49.14
2022-10-19T14:33:09.996Z,48.94
2022-10-19T14:35:41.335Z,48.55
2022-10-19T14:38:09.006Z,49.57
2022-10-19T14:40:38.266Z,49.83
2022-10-19T14:43:01.964Z,50.55
2022-10-19T14:45:30.400Z,51.40
2022-10-19T14:48:02.147Z,52.09
2022-10-19T14:53:47.591Z,52.83
2022-10-19T14:56:21.954Z,53.30
2022-10-19T14:58:51.788Z,53.24
2022-10-19T15:01:17.563Z,53.31
2022-10-19T15:03:44.367Z,53.44
2022-10-19T15:06:07.396Z,53.40
2022-10-19T15:08:43.994Z,53.90
2022-10-19T15:11:08.978Z,54.02
2022-10-19T15:13:41.499Z,53.86
2022-10-19T15:16:04.340Z,54.65
2022-10-19T15:18:48.297Z,54.82
2022-10-19T15:21:18.941Z,55.26
2022-10-19T15:24:09.066Z,54.98
2022-10-19T15:26:31.912Z,55.85
2022-10-19T15:29:07.418Z,55.80
2022-10-19T15:31:30.392Z,55.53
2022-10-19T15:34:02.049Z,55.92
2022-10-19T15:36:25.530Z,56.15
2022-10-19T15:39:11.371Z,56.88
2022-10-19T15:41:41.769Z,57.50
2022-10-19T15:44:27.702Z,57.83
2022-10-19T15:46:50.281Z,57.60
2022-10-19T15:49:16.072Z,58.23
2022-10-19T15:51:51.455Z,58.18
2022-10-19T15:54:19.158Z,58.72
2022-10-19T15:56:42.411Z,58.86
2022-10-19T15:59:10.664Z,59.39
2022-10-19T16:01:34.248Z,59.46
2022-10-19T16:03:57.278Z,59.72
2022-10-19T16:06:21.793Z,59.84
2022-10-19T16:08:46.329Z,60.10
2022-10-19T16:11:16.419Z,60.14
2022-10-19T16:13:39.045Z,60.12
2022-10-19T16:16:10.793Z,60.30
2022-10-19T16:18:34.023Z,60.42
2022-10-19T16:20:56.678Z,60.26
2022-10-19T16:25:47.046Z,60.43
2022-10-19T16:28:09.765Z,60.05
2022-10-19T16:30:32.630Z,59.96
2022-10-19T16:32:55.444Z,60.24
2022-10-19T16:35:18.017Z,59.65
2022-10-19T16:37:40.846Z,59.48
2022-10-19T16:40:05.287Z,60.48
2022-10-19T16:42:30.598Z,60.19
2022-10-19T16:44:54.415Z,60.85
2022-10-19T16:47:18.961Z,60.44
2022-10-19T16:49:43.058Z,60.29
2022-10-19T16:52:06.599Z,60.60
2022-10-19T16:54:30.187Z,60.71
2022-10-19T16:56:53.440Z,60.58
2022-10-19T16:59:18.524Z,60.42
2022-10-19T17:01:43.933Z,60.28
2022-10-19T17:04:07.081Z,60.00
2022-10-19T17:06:29.575Z,60.17
2022-10-19T17:09:23.676Z,60.09
2022-10-19T17:11:38.336Z,59.93
2022-10-19T17:14:04.258Z,60.70
2022-10-19T17:16:28.392Z,60.32
2022-10-19T17:18:53.830Z,61.13
2022-10-19T17:21:20.067Z,61.27
2022-10-19T17:23:43.856Z,61.16
2022-10-19T17:26:08.141Z,61.40
2022-10-19T17:28:38.377Z,61.90
2022-10-19T17:31:09.703Z,62.14
2022-10-19T17:33:32.566Z,62.41
2022-10-19T17:35:55.321Z,62.86
2022-10-19T17:38:19.488Z,62.84
2022-10-19T17:40:42.372Z,62.84
2022-10-19T17:43:05.177Z,62.52
2022-10-19T17:45:28.137Z,62.63
2022-10-19T17:47:51.358Z,62.74
2022-10-19T17:50:15.724Z,62.75
2022-10-19T17:52:39.046Z,62.74
2022-10-19T17:55:12.019Z,62.82
2022-10-19T17:57:36.329Z,63.15
2022-10-19T18:00:00.656Z,63.25
2022-10-19T18:02:23.476Z,64.16
2022-10-19T18:04:46.643Z,63.86
2022-10-19T18:07:09.522Z,63.89
2022-10-19T18:09:32.635Z,64.00
2022-10-19T18:11:55.734Z,64.29
2022-10-19T18:14:18.715Z,64.51
2022-10-19T18:16:45.576Z,64.54
2022-10-19T18:19:08.663Z,64.76
2022-10-19T18:21:38.697Z,64.70
2022-10-19T18:24:03.026Z,65.05
2022-10-19T18:26:29.457Z,65.30
2022-10-19T18:28:53.514Z,65.40
2022-10-19T18:31:22.536Z,64.91
2022-10-19T18:33:46.585Z,65.09
2022-10-19T18:36:10.811Z,65.25
2022-10-19T18:38:34.271Z,65.18
2022-10-19T18:41:02.093Z,65.46
2022-10-19T18:43:25.024Z,65.42
2022-10-19T18:45:56.481Z,66.01
2022-10-19T18:48:19.475Z,65.91
2022-10-19T18:50:42.596Z,66.08
2022-10-19T18:53:05.625Z,66.42
2022-10-19T18:55:28.981Z,66.40
2022-10-19T18:57:52.363Z,66.38
2022-10-19T19:00:15.469Z,66.65
2022-10-19T19:02:46.611Z,66.82
2022-10-19T19:05:10.691Z,66.96
2022-10-19T19:07:33.536Z,66.81
2022-10-19T19:09:56.497Z,66.60
2022-10-19T19:12:19.378Z,66.60
2022-10-19T19:14:43.936Z,67.10
2022-10-19T19:17:06.680Z,67.19
2022-10-19T19:19:29.991Z,67.12
2022-10-19T19:21:53.375Z,67.26
2022-10-19T19:24:19.147Z,67.19
2022-10-19T19:26:46.796Z,67.24
2022-10-19T19:29:09.829Z,67.40
2022-10-19T19:31:32.911Z,67.72
2022-10-19T19:33:56.412Z,68.19
2022-10-19T19:36:19.783Z,68.30
2022-10-19T19:38:43.546Z,68.82
2022-10-19T19:41:08.433Z,68.86
2022-10-19T19:43:33.757Z,69.05
2022-10-19T19:46:04.766Z,69.03
2022-10-19T19:48:31.224Z,69.31
2022-10-19T19:50:54.133Z,69.21
2022-10-19T19:53:17.124Z,69.75
2022-10-19T19:55:39.829Z,69.92
2022-10-19T19:58:03.129Z,69.99
2022-10-19T20:00:26.280Z,69.95
2022-10-19T20:02:56.867Z,70.25
2022-10-19T20:05:20.687Z,70.76
2022-10-19T20:07:43.566Z,71.06
2022-10-19T20:10:06.900Z,71.12
2022-10-19T20:12:31.390Z,71.54
2022-10-19T20:14:54.268Z,71.60
2022-10-19T20:17:17.119Z,71.88
2022-10-19T20:19:41.939Z,71.76
2022-10-19T20:22:06.290Z,71.66
2022-10-19T20:24:29.763Z,71.07
2022-10-19T20:26:54.476Z,71.49
2022-10-19T20:29:18.492Z,72.22
2022-10-19T20:31:42.220Z,72.24
2022-10-19T20:34:10.876Z,72.00
2022-10-19T20:36:35.491Z,71.75
2022-10-19T20:38:59.222Z,71.74
2022-10-19T20:41:25.733Z,71.99
2022-10-19T20:43:49.127Z,71.73
2022-10-19T20:46:17.917Z,71.97
2022-10-19T20:48:40.872Z,71.57
2022-10-19T20:51:14.204Z,71.54
2022-10-19T20:53:37.251Z,71.60
2022-10-19T20:56:07.305Z,71.81
2022-10-19T20:58:30.269Z,72.33
2022-10-19T21:00:52.987Z,72.27
2022-10-19T21:03:15.688Z,72.38
2022-10-19T21:05:38.539Z,72.47
2022-10-19T21:08:01.223Z,72.59
2022-10-19T21:10:23.712Z,73.44
2022-10-19T21:12:46.315Z,73.06
2022-10-19T21:15:14.688Z,73.13
2022-10-19T21:17:37.148Z,73.27
2022-10-19T21:20:00.011Z,73.04
2022-10-19T21:22:22.669Z,72.84
2022-10-19T21:24:45.224Z,72.82
2022-10-19T21:27:09.318Z,72.81
2022-10-19T21:29:32.258Z,73.30
2022-10-19T21:31:54.945Z,73.25
2022-10-19T21:34:20.705Z,73.66
2022-10-19T21:36:43.477Z,73.70
2022-10-19T21:39:06.395Z,73.67
2022-10-19T21:41:29.212Z,73.68
2022-10-19T21:43:51.771Z,73.77
2022-10-19T21:46:16.746Z,73.39
2022-10-19T21:48:40.072Z,73.33
2022-10-19T21:51:36.045Z,73.23
2022-10-19T21:53:58.743Z,73.32
2022-10-19T21:56:21.249Z,73.30
2022-10-19T21:58:49.445Z,73.55
2022-10-19T22:01:12.628Z,73.58
2022-10-19T22:03:35.207Z,73.44
2022-10-19T22:05:57.728Z,73.27
2022-10-19T22:08:20.529Z,73.35
2022-10-19T22:10:43.093Z,72.99
2022-10-19T22:13:05.826Z,72.96
2022-10-19T22:15:28.417Z,72.89
2022-10-19T22:17:51.875Z,72.76
2022-10-19T22:20:15.808Z,72.40
2022-10-19T22:22:38.602Z,72.21
2022-10-19T22:25:01.364Z,72.25
2022-10-19T22:27:23.982Z,72.14
2022-10-19T22:29:53.242Z,71.93
2022-10-19T22:32:15.787Z,72.03
2022-10-19T22:34:39.214Z,72.05
2022-10-19T22:37:02.120Z,72.46
2022-10-19T22:39:27.778Z,72.06
2022-10-19T22:41:50.641Z,72.00
2022-10-19T22:44:31.858Z,71.95
2022-10-19T22:46:54.447Z,71.93
2022-10-19T22:49:17.807Z,71.99
2022-10-19T22:51:40.458Z,72.05
2022-10-19T22:54:03.174Z,71.97
2022-10-19T22:56:25.826Z,72.18
2022-10-19T22:58:48.825Z,72.21
2022-10-19T23:01:13.686Z,72.62
2022-10-19T23:03:36.207Z,72.49
2022-10-19T23:05:59.296Z,72.43
2022-10-19T23:08:21.934Z,72.50
2022-10-19T23:10:44.575Z,72.67
2022-10-19T23:13:07.276Z,72.68
2022-10-19T23:15:29.898Z,72.61
2022-10-19T23:17:52.476Z,72.69
2022-10-19T23:20:16.268Z,72.41
2022-10-19T23:22:39.193Z,73.12
2022-10-19T23:25:01.817Z,73.00
2022-10-19T23:27:24.482Z,72.96
2022-10-19T23:29:54.193Z,73.25
2022-10-19T23:32:16.731Z,73.50
2022-10-19T23:34:41.065Z,73.12
2022-10-19T23:37:06.067Z,73.13
2022-10-19T23:39:28.609Z,73.24
2022-10-19T23:41:51.200Z,73.42
2022-10-19T23:44:13.969Z,73.50
2022-10-19T23:46:36.401Z,73.63
2022-10-19T23:48:59.058Z,74.00
2022-10-19T23:51:22.840Z,73.68
2022-10-19T23:53:49.273Z,73.36
2022-10-19T23:56:15.892Z,73.60
2022-10-19T23:58:38.541Z,73.69
